createdAt,value
2022-08-20T00:02:17.414Z,381.50
2022-08-20T00:05:06.117Z,408.63
2022-08-20T00:07:54.178Z,420.63
2022-08-20T00:10:45.148Z,414.08
2022-08-20T00:13:39.218Z,425.20
2022-08-20T00:16:32.791Z,423.13
2022-08-20T00:19:23.566Z,435.95
2022-08-20T00:22:15.223Z,415.13
2022-08-20T00:25:03.436Z,446.02
2022-08-20T00:27:51.585Z,449.08
2022-08-20T00:30:41.241Z,454.42
2022-08-20T00:33:29.322Z,448.20
2022-08-20T00:36:18.969Z,446.70
2022-08-20T00:39:07.077Z,462.73
2022-08-20T00:41:55.112Z,469.77
2022-08-20T00:44:46.520Z,433.85
2022-08-20T00:47:34.796Z,436.13
2022-08-20T00:50:27.734Z,442.20
2022-08-20T00:53:19.171Z,448.88
2022-08-20T00:56:08.506Z,456.45
2022-08-20T00:58:57.299Z,464.45
2022-08-20T01:01:55.229Z,464.17
2022-08-20T01:04:47.535Z,453.15
2022-08-20T01:07:36.446Z,440.02
2022-08-20T01:10:29.640Z,462.42
2022-08-20T01:13:23.631Z,468.83
2022-08-20T01:16:19.749Z,466.10
2022-08-20T01:19:29.444Z,466.10
2022-08-20T01:22:43.555Z,461.25
2022-08-20T01:25:42.065Z,445.58
2022-08-20T01:28:35.270Z,457.33
2022-08-20T01:31:25.542Z,453.65
2022-08-20T01:34:15.796Z,460.80
2022-08-20T01:37:04.220Z,435.75
2022-08-20T01:39:52.266Z,445.10
2022-08-20T01:42:58.827Z,455.50
2022-08-20T01:45:47.818Z,434.83
2022-08-20T01:48:38.770Z,433.02
2022-08-20T01:51:30.782Z,470.38
2022-08-20T01:54:18.902Z,449.17
2022-08-20T01:57:12.901Z,431.17
2022-08-20T02:00:03.026Z,459.98
2022-08-20T02:02:53.561Z,436.20
2022-08-20T02:05:42.017Z,431.67
2022-08-20T02:08:33.131Z,439.48
2022-08-20T02:11:21.308Z,434.67
2022-08-20T02:14:12.100Z,433.38
2022-08-20T02:17:01.509Z,426.85
2022-08-20T02:19:53.825Z,421.25
2022-08-20T02:22:50.035Z,406.75
2022-08-20T02:25:41.124Z,398.80
2022-08-20T02:28:29.677Z,408.33
2022-08-20T02:31:19.109Z,394.52
2022-08-20T02:34:21.700Z,390.30
2022-08-20T02:37:14.458Z,381.70
2022-08-20T02:40:02.631Z,389.50
2022-08-20T02:42:50.822Z,385.05
2022-08-20T02:45:43.815Z,372.85
2022-08-20T02:48:33.548Z,389.42
2022-08-20T02:51:30.569Z,369.88
2022-08-20T02:54:18.778Z,372.13
2022-08-20T02:57:12.896Z,363.23
2022-08-20T03:00:02.047Z,379.42
2022-08-20T03:02:50.409Z,360.10
2022-08-20T03:05:40.441Z,364.80
2022-08-20T03:08:30.394Z,355.73
2022-08-20T03:11:19.275Z,345.38
2022-08-20T03:14:07.359Z,328.95
2022-08-20T03:16:55.500Z,370.55
2022-08-20T03:19:43.530Z,335.05
2022-08-20T03:22:31.556Z,337.40
2022-08-20T03:25:21.495Z,338.88
2022-08-20T03:28:10.148Z,314.25
2022-08-20T03:30:59.339Z,337.25
2022-08-20T03:33:52.788Z,328.30
2022-08-20T03:36:41.849Z,317.40
2022-08-20T03:39:29.883Z,316.98
2022-08-20T03:42:19.282Z,314.30
2022-08-20T03:45:09.173Z,311.00
2022-08-20T03:47:57.928Z,310.70
2022-08-20T03:50:48.217Z,292.77
2022-08-20T03:53:36.284Z,282.23
2022-08-20T03:56:24.410Z,288.63
2022-08-20T03:59:13.764Z,277.67
2022-08-20T04:02:02.243Z,293.30
2022-08-20T04:04:50.308Z,281.77
2022-08-20T04:07:38.675Z,292.42
2022-08-20T04:10:27.007Z,281.38
2022-08-20T04:13:19.589Z,278.63
2022-08-20T04:16:14.461Z,266.27
2022-08-20T04:19:05.038Z,269.42
2022-08-20T04:21:53.123Z,270.10
2022-08-20T04:24:41.673Z,288.00
2022-08-20T04:27:29.871Z,266.00
2022-08-20T04:30:19.671Z,292.58
2022-08-20T04:33:09.459Z,300.02
2022-08-20T04:36:00.849Z,266.08
2022-08-20T04:38:50.928Z,287.60
2022-08-20T04:41:39.278Z,276.30
2022-08-20T04:44:27.494Z,280.92
2022-08-20T04:47:24.683Z,274.80
2022-08-20T04:50:24.834Z,261.75
2022-08-20T04:53:20.694Z,261.80
2022-08-20T04:56:12.181Z,294.15
2022-08-20T04:59:02.244Z,286.25
2022-08-20T05:01:50.247Z,293.70
2022-08-20T05:04:38.584Z,299.02
2022-08-20T05:07:27.908Z,284.83
2022-08-20T05:10:18.829Z,299.40
2022-08-20T05:13:07.222Z,286.05
2022-08-20T05:15:56.099Z,305.58
2022-08-20T05:18:45.236Z,295.95
2022-08-20T05:21:40.726Z,300.15
2022-08-20T05:24:30.181Z,290.55
2022-08-20T05:27:24.613Z,272.23
2022-08-20T05:30:13.539Z,296.83
2022-08-20T05:33:03.320Z,277.17
2022-08-20T05:35:52.791Z,279.05
2022-08-20T05:38:40.775Z,272.63
2022-08-20T05:41:30.718Z,268.63
2022-08-20T05:44:19.816Z,258.92
2022-08-20T05:47:07.909Z,254.85
2022-08-20T05:49:56.523Z,244.10
2022-08-20T05:52:45.401Z,252.57
2022-08-20T05:55:33.570Z,269.52
2022-08-20T05:58:25.546Z,262.13
2022-08-20T06:01:13.641Z,258.90
2022-08-20T06:04:19.323Z,257.30
2022-08-20T06:07:08.263Z,282.05
2022-08-20T06:09:56.406Z,292.02
2022-08-20T06:12:45.448Z,322.63
2022-08-20T06:15:35.628Z,333.77
2022-08-20T06:18:28.439Z,361.35
2022-08-20T06:21:16.977Z,378.50
2022-08-20T06:24:06.629Z,378.30
2022-08-20T06:26:56.924Z,403.13
2022-08-20T06:29:45.735Z,396.10
2022-08-20T06:32:35.145Z,402.48
2022-08-20T06:35:23.544Z,400.23
2022-08-20T06:38:12.535Z,394.90
2022-08-20T06:41:00.584Z,373.92
2022-08-20T06:43:48.612Z,385.20
2022-08-20T06:46:36.942Z,399.65
2022-08-20T06:49:26.372Z,414.30
2022-08-20T06:52:17.262Z,409.63
2022-08-20T06:55:07.838Z,408.17
2022-08-20T06:58:00.410Z,424.08
2022-08-20T07:00:48.927Z,430.38
2022-08-20T07:03:38.001Z,407.77
2022-08-20T07:06:28.518Z,418.15
2022-08-20T07:09:16.625Z,398.90
2022-08-20T07:12:05.214Z,432.48
2022-08-20T07:14:55.111Z,415.05
2022-08-20T07:17:43.760Z,414.10
2022-08-20T07:20:33.938Z,418.55
2022-08-20T07:23:23.357Z,419.38
2022-08-20T07:26:11.416Z,418.77
2022-08-20T07:28:59.720Z,402.90
2022-08-20T07:32:05.161Z,400.20
2022-08-20T07:34:53.698Z,397.77
2022-08-20T07:37:43.801Z,397.02
2022-08-20T07:40:35.978Z,380.55
2022-08-20T07:43:24.557Z,364.70
2022-08-20T07:46:13.676Z,373.67
2022-08-20T07:49:02.136Z,374.55
2022-08-20T07:51:50.130Z,370.58
2022-08-20T07:54:38.259Z,363.52
2022-08-20T07:57:27.541Z,379.35
2022-08-20T08:00:17.392Z,383.25
2022-08-20T08:03:06.168Z,362.75
2022-08-20T08:05:54.646Z,362.17
2022-08-20T08:08:43.598Z,347.08
2022-08-20T08:11:34.487Z,350.55
2022-08-20T08:14:28.930Z,369.02
2022-08-20T08:17:18.925Z,345.30
2022-08-20T08:20:09.062Z,334.08
2022-08-20T08:22:58.782Z,311.33
2022-08-20T08:25:47.112Z,305.27
2022-08-20T08:28:36.898Z,290.88
2022-08-20T08:31:26.627Z,292.45
2022-08-20T08:34:14.738Z,257.40
2022-08-20T08:37:03.163Z,213.38
2022-08-20T08:39:51.529Z,168.75
2022-08-20T08:42:44.693Z,146.40
2022-08-20T08:45:52.054Z,127.45
2022-08-20T08:48:44.356Z,115.88
2022-08-20T08:51:39.008Z,127.55
2022-08-20T08:54:31.265Z,133.90
2022-08-20T08:57:19.533Z,164.40
2022-08-20T09:00:13.558Z,187.30
2022-08-20T09:03:04.778Z,200.50
2022-08-20T09:06:02.647Z,222.68
2022-08-20T09:08:53.698Z,240.25
2022-08-20T09:11:48.035Z,237.43
2022-08-20T09:14:37.200Z,275.52
2022-08-20T09:17:25.844Z,298.38
2022-08-20T09:20:13.985Z,306.50
2022-08-20T09:23:06.374Z,302.25
2022-08-20T09:25:54.412Z,277.77
2022-08-20T09:28:42.427Z,245.13
2022-08-20T09:31:30.557Z,232.50
2022-08-20T09:34:18.818Z,214.20
2022-08-20T09:37:06.977Z,240.57
2022-08-20T09:39:57.308Z,210.35
2022-08-20T09:42:45.398Z,199.48
2022-08-20T09:45:33.692Z,189.85
2022-08-20T09:48:21.714Z,209.45
2022-08-20T09:51:20.249Z,220.35
2022-08-20T09:54:08.296Z,222.77
2022-08-20T09:56:59.038Z,230.98
2022-08-20T09:59:51.909Z,275.63
2022-08-20T10:02:40.166Z,300.38
2022-08-20T10:05:28.188Z,290.42
2022-08-20T10:08:16.727Z,302.00
2022-08-20T10:11:05.232Z,319.20
2022-08-20T10:13:54.555Z,301.27
2022-08-20T10:16:42.565Z,318.40
2022-08-20T10:19:32.187Z,304.17
2022-08-20T10:22:20.215Z,332.92
2022-08-20T10:25:09.383Z,320.83
2022-08-20T10:27:58.610Z,338.85
2022-08-20T10:30:47.980Z,339.85
2022-08-20T10:33:36.514Z,323.02
2022-08-20T10:36:24.441Z,291.13
2022-08-20T10:39:12.834Z,267.42
2022-08-20T10:42:00.861Z,251.20
2022-08-20T10:44:48.964Z,226.95
2022-08-20T10:47:38.608Z,175.07
2022-08-20T10:50:30.308Z,128.10
2022-08-20T10:53:19.296Z,104.80
2022-08-20T10:56:08.002Z,80.65
2022-08-20T10:58:56.005Z,73.57
2022-08-20T11:01:44.166Z,64.38
2022-08-20T11:04:33.542Z,56.05
2022-08-20T11:07:50.549Z,52.90
2022-08-20T11:10:35.872Z,46.67
2022-08-20T11:13:24.063Z,41.95
2022-08-20T11:16:12.109Z,41.28
2022-08-20T11:19:00.110Z,38.47
2022-08-20T11:21:50.640Z,33.92
2022-08-20T11:24:39.410Z,33.53
2022-08-20T11:27:29.792Z,33.60
2022-08-20T11:30:20.411Z,32.67
2022-08-20T11:33:08.868Z,29.17
2022-08-20T11:35:57.081Z,30.30
2022-08-20T11:38:46.451Z,30.05
2022-08-20T11:41:34.521Z,26.85
2022-08-20T11:44:22.664Z,24.63
2022-08-20T11:47:20.158Z,24.95
2022-08-20T11:50:11.688Z,22.95
2022-08-20T11:53:01.603Z,19.88
2022-08-20T11:55:51.236Z,22.20
2022-08-20T11:58:39.249Z,17.42
2022-08-20T12:01:27.473Z,15.80
2022-08-20T12:04:15.460Z,14.75
2022-08-20T12:07:10.261Z,16.88
2022-08-20T12:09:58.251Z,15.32
2022-08-20T12:12:47.654Z,15.52
2022-08-20T12:15:36.455Z,16.08
2022-08-20T12:18:27.049Z,14.57
2022-08-20T12:21:15.850Z,13.90
2022-08-20T12:24:04.080Z,12.38
2022-08-20T12:26:52.074Z,14.65
2022-08-20T12:29:43.257Z,14.82
2022-08-20T12:32:33.146Z,14.07
2022-08-20T12:35:21.323Z,13.35
2022-08-20T12:38:09.321Z,12.50
2022-08-20T12:40:57.371Z,13.10
2022-08-20T12:43:45.366Z,15.70
2022-08-20T12:46:34.692Z,16.20
2022-08-20T12:49:22.680Z,15.65
2022-08-20T12:52:10.803Z,17.02
2022-08-20T12:54:59.959Z,17.70
2022-08-20T12:57:49.916Z,16.50
2022-08-20T13:00:43.308Z,16.90
2022-08-20T13:03:32.691Z,18.17
2022-08-20T13:06:28.876Z,19.38
2022-08-20T13:09:17.880Z,14.75
2022-08-20T13:12:06.288Z,12.45
2022-08-20T13:14:54.331Z,12.13
2022-08-20T13:17:42.927Z,13.63
2022-08-20T13:20:34.140Z,12.57
2022-08-20T13:23:22.839Z,11.98
2022-08-20T13:26:10.888Z,11.77
2022-08-20T13:28:58.923Z,10.80
2022-08-20T13:31:48.780Z,12.27
2022-08-20T13:34:36.783Z,12.05
2022-08-20T13:37:29.890Z,12.00
2022-08-20T13:40:18.757Z,14.18
2022-08-20T13:43:11.736Z,13.70
2022-08-20T13:46:00.211Z,15.48
2022-08-20T13:48:48.246Z,15.15
2022-08-20T13:51:36.308Z,14.85
2022-08-20T13:54:30.175Z,13.45
2022-08-20T13:57:20.350Z,12.50
2022-08-20T14:00:11.871Z,12.55
2022-08-20T14:03:00.339Z,12.98
2022-08-20T14:05:48.478Z,13.10
2022-08-20T14:08:36.877Z,13.25
2022-08-20T14:11:26.361Z,12.63
2022-08-20T14:14:14.398Z,10.55
2022-08-20T14:17:16.404Z,9.63
2022-08-20T14:20:08.585Z,8.15
2022-08-20T14:22:58.400Z,8.13
2022-08-20T14:25:49.284Z,7.80
2022-08-20T14:28:38.589Z,7.78
2022-08-20T14:31:26.551Z,7.70
2022-08-20T14:34:14.612Z,7.20
2022-08-20T14:37:12.093Z,7.45
2022-08-20T14:40:02.128Z,7.63
2022-08-20T14:42:51.402Z,7.85
2022-08-20T14:45:41.286Z,7.20
2022-08-20T14:48:29.304Z,7.75
2022-08-20T14:51:17.319Z,8.40
2022-08-20T14:54:05.742Z,8.35
2022-08-20T14:56:54.787Z,7.47
2022-08-20T14:59:43.520Z,6.90
2022-08-20T15:02:32.872Z,6.55
2022-08-20T15:05:21.062Z,7.03
2022-08-20T15:08:10.499Z,7.00
2022-08-20T15:10:59.308Z,6.30
2022-08-20T15:13:47.319Z,6.05
2022-08-20T15:16:35.818Z,8.18
2022-08-20T15:19:25.173Z,61.22
2022-08-20T15:22:13.190Z,28.75
2022-08-20T15:25:01.233Z,6.78
2022-08-20T15:27:49.819Z,5.65
2022-08-20T15:30:39.756Z,5.95
2022-08-20T15:33:27.841Z,5.63
2022-08-20T15:36:17.409Z,5.65
2022-08-20T15:39:05.669Z,5.80
2022-08-20T15:41:53.810Z,5.75
2022-08-20T15:44:42.786Z,5.60
2022-08-20T15:47:34.880Z,5.60
2022-08-20T15:50:38.333Z,5.93
2022-08-20T15:53:34.034Z,5.32
2022-08-20T15:56:41.505Z,5.65
2022-08-20T15:59:55.446Z,5.70
2022-08-20T16:02:58.679Z,5.97
2022-08-20T16:05:55.326Z,5.70
2022-08-20T16:09:01.172Z,5.78
2022-08-20T16:11:55.800Z,5.72
2022-08-20T16:14:48.522Z,5.55
2022-08-20T16:17:41.246Z,5.70
2022-08-20T16:20:35.615Z,5.50
2022-08-20T16:23:29.841Z,5.43
2022-08-20T16:26:35.373Z,6.00
2022-08-20T16:29:27.434Z,5.63
2022-08-20T16:32:26.264Z,5.95
2022-08-20T16:35:33.909Z,6.60
2022-08-20T16:38:33.144Z,7.30
2022-08-20T16:41:29.709Z,6.03
2022-08-20T16:44:25.381Z,5.68
2022-08-20T16:47:19.065Z,5.82
2022-08-20T16:50:11.068Z,5.70
2022-08-20T16:52:59.144Z,5.80
2022-08-20T16:55:47.724Z,5.70
2022-08-20T16:58:37.371Z,5.68
2022-08-20T17:01:27.523Z,6.00
2022-08-20T17:04:21.780Z,5.57
2022-08-20T17:07:11.758Z,6.03
2022-08-20T17:10:12.333Z,5.70
2022-08-20T17:13:04.657Z,5.93
2022-08-20T17:15:59.699Z,6.82
2022-08-20T17:18:50.145Z,7.13
2022-08-20T17:21:39.068Z,7.75
2022-08-20T17:24:31.036Z,7.43
2022-08-20T17:27:34.986Z,7.95
2022-08-20T17:30:28.712Z,8.38
2022-08-20T17:33:26.931Z,7.68
2022-08-20T17:36:20.678Z,7.50
2022-08-20T17:39:17.638Z,7.70
2022-08-20T17:42:08.905Z,7.15
2022-08-20T17:45:04.425Z,7.03
2022-08-20T17:47:53.708Z,8.68
2022-08-20T17:50:44.462Z,14.90
2022-08-20T17:53:35.068Z,18.75
2022-08-20T17:56:27.171Z,20.67
2022-08-20T17:59:33.639Z,26.15
2022-08-20T18:02:26.564Z,30.40
2022-08-20T18:05:20.255Z,29.50
2022-08-20T18:08:20.604Z,28.52
2022-08-20T18:11:23.154Z,29.73
2022-08-20T18:14:43.239Z,32.42
2022-08-20T18:17:50.637Z,34.25
2022-08-20T18:20:50.267Z,34.40
2022-08-20T18:23:47.654Z,35.33
2022-08-20T18:26:45.202Z,31.45
2022-08-20T18:29:36.955Z,30.83
2022-08-20T18:32:32.246Z,33.08
2022-08-20T18:35:23.521Z,34.38
2022-08-20T18:38:14.167Z,40.05
2022-08-20T18:41:13.670Z,43.38
2022-08-20T18:44:09.158Z,45.92
2022-08-20T18:47:00.569Z,53.13
2022-08-20T18:50:00.231Z,57.42
2022-08-20T18:52:50.924Z,59.70
2022-08-20T18:55:42.691Z,67.57
2022-08-20T18:58:34.205Z,72.38
2022-08-20T19:01:22.353Z,76.65
2022-08-20T19:04:27.167Z,74.38
2022-08-20T19:07:17.281Z,76.45
2022-08-20T19:10:28.072Z,84.47
2022-08-20T19:13:47.254Z,83.05
2022-08-20T19:16:40.568Z,78.30
2022-08-20T19:19:32.812Z,90.20
2022-08-20T19:22:22.103Z,91.28
2022-08-20T19:25:20.797Z,93.55
2022-08-20T19:28:20.930Z,95.97
2022-08-20T19:31:12.703Z,105.15
2022-08-20T19:34:04.009Z,113.15
2022-08-20T19:37:34.994Z,113.30
2022-08-20T19:40:28.561Z,122.18
2022-08-20T19:43:21.666Z,126.25
2022-08-20T19:46:11.716Z,122.80
2022-08-20T19:49:17.975Z,130.02
2022-08-20T19:52:22.504Z,132.52
2022-08-20T19:55:21.515Z,141.95
2022-08-20T19:58:20.469Z,149.00
2022-08-20T20:01:21.100Z,144.90
2022-08-20T20:04:18.105Z,151.27
2022-08-20T20:07:09.174Z,156.55
2022-08-20T20:09:59.221Z,162.80
2022-08-20T20:12:48.702Z,182.18
2022-08-20T20:15:39.255Z,187.32
2022-08-20T20:18:32.477Z,178.32
2022-08-20T20:21:24.851Z,181.88
2022-08-20T20:24:23.266Z,187.63
2022-08-20T20:27:20.297Z,197.02
2022-08-20T20:30:13.680Z,195.43
2022-08-20T20:33:11.420Z,210.18
2022-08-20T20:36:06.862Z,207.25
2022-08-20T20:38:56.704Z,202.40
2022-08-20T20:41:52.549Z,213.93
2022-08-20T20:44:43.214Z,232.93
2022-08-20T20:47:36.012Z,230.90
2022-08-20T20:50:30.729Z,240.45
2022-08-20T20:53:51.080Z,252.25
2022-08-20T20:56:43.958Z,263.88
2022-08-20T20:59:34.425Z,254.95
2022-08-20T21:02:23.284Z,266.70
2022-08-20T21:05:12.815Z,279.55
2022-08-20T21:08:03.834Z,275.60
2022-08-20T21:10:53.176Z,280.52
2022-08-20T21:13:41.148Z,289.92
2022-08-20T21:16:34.131Z,306.27
2022-08-20T21:19:22.574Z,334.85
2022-08-20T21:22:10.630Z,312.48
2022-08-20T21:24:58.652Z,343.75
2022-08-20T21:27:50.681Z,347.20
2022-08-20T21:30:38.665Z,363.33
2022-08-20T21:33:26.656Z,362.52
2022-08-20T21:36:16.448Z,374.92
2022-08-20T21:39:04.745Z,365.40
2022-08-20T21:41:52.927Z,388.05
2022-08-20T21:44:47.959Z,396.95
2022-08-20T21:47:37.791Z,381.27
2022-08-20T21:50:26.687Z,401.88
2022-08-20T21:53:14.670Z,401.45
2022-08-20T21:56:03.245Z,416.02
2022-08-20T21:58:53.738Z,416.48
2022-08-20T22:01:44.664Z,426.55
2022-08-20T22:04:35.495Z,406.83
2022-08-20T22:07:24.180Z,433.88
2022-08-20T22:10:13.972Z,426.98
2022-08-20T22:13:02.722Z,446.60
2022-08-20T22:15:50.793Z,458.10
2022-08-20T22:18:43.213Z,441.23
2022-08-20T22:21:33.891Z,451.50
2022-08-20T22:24:30.023Z,453.15
2022-08-20T22:27:18.032Z,446.38
2022-08-20T22:30:07.513Z,464.95
2022-08-20T22:32:58.979Z,451.35
2022-08-20T22:35:54.830Z,452.23
2022-08-20T22:38:42.828Z,455.02
2022-08-20T22:41:30.810Z,451.90
2022-08-20T22:44:18.776Z,455.25
2022-08-20T22:47:08.948Z,432.33
2022-08-20T22:49:58.379Z,469.42
2022-08-20T22:52:47.721Z,454.52
2022-08-20T22:55:36.107Z,449.45
2022-08-20T22:58:31.445Z,468.45
2022-08-20T23:01:20.929Z,453.05
2022-08-20T23:04:14.196Z,462.77
2022-08-20T23:07:03.587Z,468.08
2022-08-20T23:09:52.913Z,455.08
2022-08-20T23:12:40.919Z,460.83
2022-08-20T23:15:30.236Z,463.33
2022-08-20T23:18:20.548Z,449.65
2022-08-20T23:21:08.606Z,453.27
2022-08-20T23:23:56.644Z,445.50
2022-08-20T23:26:52.742Z,445.23
2022-08-20T23:29:41.507Z,427.35
2022-08-20T23:32:29.543Z,434.35
2022-08-20T23:35:18.273Z,433.83
2022-08-20T23:38:06.684Z,430.00
2022-08-20T23:40:54.687Z,425.23
2022-08-20T23:43:44.032Z,419.15
2022-08-20T23:46:36.058Z,440.73
2022-08-20T23:49:24.074Z,426.58
2022-08-20T23:52:12.093Z,427.38
2022-08-20T23:55:00.286Z,434.38
2022-08-20T23:57:48.269Z,432.98
